Time;durP1;ratioP1;P1;durP2;ratioP2;P2;SDS_P1;SDS_P2;PMS_P1;PMS_P2;Temp;Humidity;BMP_temperature;BMP_pressure;BME280_temperature;BME280_humidity;BME280_pressure;Samples;Min_cycle;Max_cycle;Signal;HPM_P1;HPM_P2
2022/04/09 00:01:38;;;;;;;6.18;4.47;;;;;;;8.10;85.18;94838.34;6339668;22;20006;-60
2022/04/09 00:04:04;;;;;;;4.82;4.35;;;;;;;8.03;86.71;94843.34;6367529;22;20002;-60
2022/04/09 00:06:29;;;;;;;6.95;4.50;;;;;;;7.96;88.06;94844.91;6367454;22;20004;-60
2022/04/09 00:08:55;;;;;;;5.97;3.95;;;;;;;7.92;88.07;94850.56;6367383;22;20115;-60
2022/04/09 00:11:20;;;;;;;5.65;3.30;;;;;;;7.82;89.79;94851.47;6367313;22;20071;-61
2022/04/09 00:13:45;;;;;;;7.40;4.75;;;;;;;7.79;89.79;94858.78;6367201;22;20346;-60
2022/04/09 00:16:11;;;;;;;9.18;4.35;;;;;;;7.70;90.83;94863.09;6367167;22;20082;-60
2022/04/09 00:18:36;;;;;;;7.45;4.50;;;;;;;7.66;92.86;94864.34;6367272;22;20009;-60
2022/04/09 00:21:02;;;;;;;5.65;4.05;;;;;;;7.68;93.31;94860.63;6367271;22;20056;-60
2022/04/09 00:23:27;;;;;;;6.93;4.20;;;;;;;7.67;92.93;94853.75;6339682;22;20010;-60
2022/04/09 00:25:52;;;;;;;5.53;3.67;;;;;;;7.88;90.30;94861.34;6367368;22;20067;-60
2022/04/09 00:28:18;;;;;;;5.07;3.75;;;;;;;7.71;92.52;94860.34;6367186;22;20002;-60
2022/04/09 00:30:43;;;;;;;10.02;4.78;;;;;;;7.64;92.07;94864.53;6367067;22;20005;-60
2022/04/09 00:33:09;;;;;;;9.32;4.85;;;;;;;7.58;92.20;94867.69;6367065;22;20056;-60
2022/04/09 00:35:34;;;;;;;14.63;5.15;;;;;;;7.55;92.54;94867.97;6367388;22;20354;-60
2022/04/09 00:37:59;;;;;;;6.38;4.00;;;;;;;7.57;91.92;94879.13;6367175;22;20006;-60
2022/04/09 00:40:26;;;;;;;6.90;3.85;;;;;;;7.52;93.24;94886.59;6367132;22;19998;-60
2022/04/09 00:42:52;;;;;;;9.45;4.43;;;;;;;7.42;94.57;94889.25;6367087;22;20006;-60
2022/04/09 00:45:17;;;;;;;6.05;3.85;;;;;;;7.36;94.00;94902.91;6366801;22;20036;-60
2022/04/09 00:47:43;;;;;;;4.82;2.45;;;;;;;7.35;92.66;94901.28;6367309;22;20006;-60
2022/04/09 00:50:10;;;;;;;3.85;2.13;;;;;;;7.38;90.72;94906.22;6366889;22;20018;-60
2022/04/09 00:52:39;;;;;;;4.93;2.25;;;;;;;7.42;90.60;94908.44;6367401;22;20009;-60
2022/04/09 00:55:06;;;;;;;4.88;2.42;;;;;;;7.43;90.80;94899.59;6366895;22;19999;-60
2022/04/09 00:57:35;;;;;;;8.63;3.17;;;;;;;7.52;88.35;94899.69;6367321;22;20006;-60
2022/04/09 01:00:12;;;;;;;6.53;2.17;;;;;;;7.72;82.27;94908.31;6367041;22;20095;-61
2022/04/09 01:02:44;;;;;;;4.43;2.15;;;;;;;7.87;78.86;94909.50;6366571;22;20402;-60
2022/04/09 01:05:10;;;;;;;9.05;2.47;;;;;;;8.01;76.51;94904.75;6366991;22;20036;-60
2022/04/09 01:07:36;;;;;;;7.97;2.10;;;;;;;8.17;73.84;94920.66;6367100;22;20006;-60
2022/04/09 01:10:04;;;;;;;7.82;2.20;;;;;;;8.73;61.87;94922.44;6367011;22;20351;-60
2022/04/09 01:12:29;;;;;;;8.10;1.98;;;;;;;8.73;62.83;94923.28;6367151;22;20010;-60
2022/04/09 01:14:55;;;;;;;4.18;1.90;;;;;;;8.68;66.40;94927.31;6366765;22;20434;-60
2022/04/09 01:17:20;;;;;;;4.57;2.45;;;;;;;8.50;70.93;94932.53;6366904;22;20042;-59
2022/04/09 01:19:46;;;;;;;2.58;2.08;;;;;;;8.23;74.08;94939.44;6366992;22;20009;-59
2022/04/09 01:22:11;;;;;;;3.67;1.83;;;;;;;7.99;75.58;94938.97;6366633;22;20446;-60
2022/04/09 01:24:37;;;;;;;3.65;1.67;;;;;;;7.89;76.37;94946.06;6367084;22;20083;-59
2022/04/09 01:27:03;;;;;;;5.88;1.75;;;;;;;7.84;75.93;94945.66;6366743;22;20077;-60
2022/04/09 01:29:29;;;;;;;3.47;1.80;;;;;;;7.84;75.92;94943.88;6367125;22;20373;-60
2022/04/09 01:31:54;;;;;;;9.40;2.33;;;;;;;7.73;77.35;94951.88;6367162;22;20085;-60
2022/04/09 01:34:20;;;;;;;2.78;2.00;;;;;;;7.63;79.22;94941.47;6366943;22;20081;-60
2022/04/09 01:36:45;;;;;;;3.17;1.75;;;;;;;7.56;80.45;94945.59;6366991;22;20003;-60
2022/04/09 01:39:12;;;;;;;3.38;2.22;;;;;;;7.56;79.20;94948.22;6338908;22;20018;-60
2022/04/09 01:41:37;;;;;;;4.00;1.98;;;;;;;7.57;79.88;94945.47;6366966;22;20009;-59
2022/04/09 01:44:03;;;;;;;3.05;1.80;;;;;;;7.50;81.49;94956.66;6366709;22;20010;-60
2022/04/09 01:46:29;;;;;;;2.97;2.15;;;;;;;7.41;83.20;94968.78;6367101;22;20048;-60
2022/04/09 01:48:54;;;;;;;6.38;2.08;;;;;;;7.39;83.75;94968.91;6366744;22;20439;-60
2022/04/09 01:51:20;;;;;;;2.25;1.60;;;;;;;7.30;84.84;94972.38;6366547;22;20030;-60
2022/04/09 01:53:45;;;;;;;5.75;2.00;;;;;;;7.33;84.52;94977.34;6366647;22;20022;-60
2022/04/09 01:56:11;;;;;;;3.03;1.90;;;;;;;7.55;82.26;94978.84;6366434;22;20006;-60
2022/04/09 01:58:36;;;;;;;1.73;1.27;;;;;;;8.01;71.99;95002.56;6366649;22;20079;-58
2022/04/09 02:01:02;;;;;;;1.40;1.30;;;;;;;7.97;73.87;94998.59;6366857;22;20342;-58
2022/04/09 02:03:28;;;;;;;1.52;1.30;;;;;;;7.63;76.79;95006.13;6366930;22;20025;-57
2022/04/09 02:05:53;;;;;;;5.70;1.42;;;;;;;7.40;78.43;95007.22;6366850;22;20048;-58
2022/04/09 02:08:19;;;;;;;1.95;1.45;;;;;;;7.04;79.61;95014.81;6366229;22;20489;-58
2022/04/09 02:10:45;;;;;;;1.58;1.42;;;;;;;6.89;81.43;95032.72;6366882;22;20002;-58
2022/04/09 02:13:12;;;;;;;2.50;1.45;;;;;;;6.56;84.28;95027.69;6367126;22;20056;-58
2022/04/09 02:15:37;;;;;;;1.67;1.20;;;;;;;6.40;86.53;95041.25;6368342;22;20034;-58
2022/04/09 02:18:03;;;;;;;1.30;1.30;;;;;;;6.31;87.55;95042.06;6368427;22;20007;-57
2022/04/09 02:20:29;;;;;;;2.90;1.00;;;;;;;6.34;87.40;95040.97;6368658;22;20021;-58
2022/04/09 02:22:55;;;;;;;1.50;1.40;;;;;;;6.18;88.00;95039.66;6368892;22;20006;-58
2022/04/09 02:25:20;;;;;;;1.10;1.10;;;;;;;6.10;85.78;95045.53;6368170;22;20081;-58
2022/04/09 02:27:46;;;;;;;1.20;1.20;;;;;;;5.97;86.78;95048.34;6368810;22;20030;-58
2022/04/09 02:30:12;;;;;;;1.10;1.05;;;;;;;5.82;86.41;95042.63;6368553;22;20005;-58
2022/04/09 02:32:52;;;;;;;1.30;1.20;;;;;;;5.74;90.46;95040.63;6368551;22;20025;-58
2022/04/09 02:35:20;;;;;;;1.10;1.10;;;;;;;5.67;89.52;95044.72;6368329;22;19998;-58
2022/04/09 02:37:46;;;;;;;4.03;1.20;;;;;;;5.73;92.95;95051.19;6368206;22;20060;-58
2022/04/09 02:40:12;;;;;;;1.20;1.20;;;;;;;5.77;91.95;95041.34;6368702;22;20360;-59
2022/04/09 02:42:38;;;;;;;1.50;1.40;;;;;;;5.79;92.56;95052.47;6368195;22;20002;-58
2022/04/09 02:45:08;;;;;;;1.15;1.15;;;;;;;5.57;93.26;95062.09;6368429;22;20028;-58
2022/04/09 02:47:34;;;;;;;1.20;1.20;;;;;;;5.64;92.48;95060.66;6368256;22;19998;-58
2022/04/09 02:50:01;;;;;;;1.10;1.10;;;;;;;5.52;92.00;95075.53;6367994;22;20332;-58
2022/04/09 02:52:29;;;;;;;6.90;1.27;;;;;;;5.62;89.48;95065.16;6368060;22;20091;-59
2022/04/09 02:54:54;;;;;;;1.10;1.10;;;;;;;5.60;88.22;95072.28;6368218;22;20002;-59
2022/04/09 02:57:20;;;;;;;1.20;1.20;;;;;;;5.49;91.15;95080.19;6368629;22;20002;-59
2022/04/09 02:59:45;;;;;;;1.33;1.30;;;;;;;5.28;90.97;95075.75;6340234;22;20017;-59
2022/04/09 03:02:11;;;;;;;1.60;1.25;;;;;;;5.40;88.16;95087.81;6367927;22;20461;-59
2022/04/09 03:04:36;;;;;;;1.13;1.13;;;;;;;5.50;90.04;95094.91;6367683;22;19998;-60
2022/04/09 03:07:01;;;;;;;1.20;1.20;;;;;;;5.18;91.81;95095.72;6368032;22;20074;-59
2022/04/09 03:09:27;;;;;;;1.27;1.27;;;;;;;5.27;89.23;95103.63;6367973;22;20048;-59
2022/04/09 03:11:53;;;;;;;1.38;1.38;;;;;;;5.11;89.88;95111.88;6368093;22;20182;-59
2022/04/09 03:14:18;;;;;;;1.35;1.35;;;;;;;4.99;89.91;95118.88;6368060;22;20001;-59
2022/04/09 03:16:44;;;;;;;1.33;1.33;;;;;;;4.91;91.02;95117.84;6367690;22;19998;-59
2022/04/09 03:19:09;;;;;;;1.50;1.40;;;;;;;4.87;92.50;95127.69;6367967;22;20010;-58
2022/04/09 03:21:34;;;;;;;1.80;1.70;;;;;;;4.84;93.08;95133.97;6367923;22;20050;-59
2022/04/09 03:24:00;;;;;;;1.92;1.83;;;;;;;4.99;95.05;95149.38;6368158;22;20025;-59
2022/04/09 03:26:25;;;;;;;1.75;1.65;;;;;;;4.93;95.62;95157.66;6367707;22;20082;-58
2022/04/09 03:28:50;;;;;;;1.92;1.80;;;;;;;4.75;93.95;95142.50;6368189;22;20002;-59
2022/04/09 03:31:16;;;;;;;1.25;1.25;;;;;;;4.65;94.93;95154.63;6367310;22;20005;-59
2022/04/09 03:33:42;;;;;;;1.48;1.40;;;;;;;4.90;87.42;95150.94;6367665;22;20069;-58
2022/04/09 03:36:07;;;;;;;1.10;1.10;;;;;;;4.71;84.81;95160.19;6368001;22;20002;-59
2022/04/09 03:38:33;;;;;;;0.98;0.98;;;;;;;4.65;87.41;95160.66;6366788;22;20008;-58
2022/04/09 03:40:58;;;;;;;1.38;1.38;;;;;;;4.64;88.74;95163.38;6367275;22;20017;-59
2022/04/09 03:43:25;;;;;;;2.15;1.10;;;;;;;4.58;90.31;95170.75;6365583;22;20418;-59
2022/04/09 03:45:51;;;;;;;1.10;1.10;;;;;;;4.46;91.72;95171.66;6366302;22;20519;-61
2022/04/09 03:48:17;;;;;;;1.30;1.30;;;;;;;4.40;93.40;95187.78;6367129;22;20033;-59
2022/04/09 03:50:42;;;;;;;1.55;1.50;;;;;;;4.41;96.47;95189.44;6367181;22;20011;-61
2022/04/09 03:53:07;;;;;;;1.60;1.50;;;;;;;4.40;96.98;95198.22;6366768;22;20446;-60
2022/04/09 03:55:33;;;;;;;1.35;1.35;;;;;;;4.38;96.52;95206.13;6339735;22;20014;-60
2022/04/09 03:57:58;;;;;;;1.10;1.10;;;;;;;4.42;94.75;95201.53;6367032;22;20007;-59
2022/04/09 04:00:24;;;;;;;1.63;1.52;;;;;;;4.60;96.04;95204.50;6366474;22;20003;-58
2022/04/09 04:02:50;;;;;;;1.50;1.50;;;;;;;4.39;96.82;95213.00;6367360;22;20372;-60
2022/04/09 04:05:16;;;;;;;1.30;1.30;;;;;;;4.33;97.09;95218.69;6367150;22;20007;-60
2022/04/09 04:07:46;;;;;;;1.42;1.40;;;;;;;4.28;100.00;95215.59;6366980;22;20621;-61
2022/04/09 04:10:12;;;;;;;1.40;1.40;;;;;;;4.24;100.00;95215.00;6366764;22;20009;-61
2022/04/09 04:12:40;;;;;;;1.92;1.88;;;;;;;4.17;100.00;95221.63;6367452;22;20024;-61
2022/04/09 04:15:06;;;;;;;1.75;1.70;;;;;;;4.05;99.62;95218.13;6367567;22;20472;-60
2022/04/09 04:17:44;;;;;;;1.33;1.30;;;;;;;4.00;100.00;95221.06;6367682;22;20010;-61
2022/04/09 04:20:11;;;;;;;1.63;1.63;;;;;;;4.21;100.00;95220.44;6367591;22;20002;-61
2022/04/09 04:22:37;;;;;;;1.70;1.65;;;;;;;4.47;95.98;95228.06;6367406;22;20073;-61
2022/04/09 04:25:04;;;;;;;1.30;1.30;;;;;;;4.30;96.16;95218.91;6367629;22;20005;-61
2022/04/09 04:27:30;;;;;;;1.20;1.20;;;;;;;4.16;96.24;95222.56;6367441;22;20470;-61
2022/04/09 04:30:03;;;;;;;1.30;1.30;;;;;;;3.88;99.32;95232.41;6367392;22;20037;-61
2022/04/09 04:32:28;;;;;;;1.30;1.30;;;;;;;3.85;97.75;95237.81;6367276;22;20438;-61
2022/04/09 04:34:54;;;;;;;1.27;1.27;;;;;;;3.77;99.57;95240.16;6367822;22;20005;-61
2022/04/09 04:37:19;;;;;;;2.10;1.83;;;;;;;3.71;100.00;95250.09;6366909;22;20070;-61
2022/04/09 04:39:45;;;;;;;1.63;1.63;;;;;;;3.73;100.00;95260.38;6367210;22;20056;-61
2022/04/09 04:42:10;;;;;;;1.50;1.50;;;;;;;3.72;100.00;95254.34;6367105;22;20005;-61
2022/04/09 04:44:35;;;;;;;1.60;1.60;;;;;;;3.76;100.00;95251.53;6367079;22;20002;-61
2022/04/09 04:47:01;;;;;;;1.33;1.33;;;;;;;4.01;100.00;95261.00;6367143;22;20077;-61
2022/04/09 04:49:26;;;;;;;1.38;1.38;;;;;;;3.84;100.00;95260.44;6367207;22;20018;-61
2022/04/09 04:51:51;;;;;;;1.95;1.20;;;;;;;3.79;100.00;95256.50;6367130;22;20011;-61
2022/04/09 04:54:17;;;;;;;1.27;1.25;;;;;;;3.78;100.00;95260.88;6367117;22;20009;-61
2022/04/09 04:56:42;;;;;;;1.30;1.30;;;;;;;3.71;100.00;95263.09;6367039;22;20006;-61
2022/04/09 04:59:08;;;;;;;1.20;1.20;;;;;;;3.63;100.00;95257.59;6367127;22;20006;-61
2022/04/09 05:01:34;;;;;;;1.30;1.30;;;;;;;3.63;100.00;95267.19;6366994;22;19998;-61
2022/04/09 05:04:00;;;;;;;1.55;1.50;;;;;;;3.65;100.00;95279.16;6367216;22;20486;-61
2022/04/09 05:06:26;;;;;;;1.20;1.20;;;;;;;3.68;100.00;95284.16;6367112;22;20022;-61
2022/04/09 05:08:51;;;;;;;1.50;1.50;;;;;;;3.71;100.00;95286.53;6367310;22;20426;-60
2022/04/09 05:11:16;;;;;;;1.65;1.55;;;;;;;3.69;100.00;95292.78;6367178;22;20072;-61
2022/04/09 05:13:42;;;;;;;1.42;1.33;;;;;;;3.70;100.00;95291.84;6366867;22;20077;-61
2022/04/09 05:16:07;;;;;;;1.17;1.17;;;;;;;3.74;100.00;95298.47;6367166;22;20006;-61
2022/04/09 05:18:34;;;;;;;1.48;1.38;;;;;;;3.73;100.00;95307.25;6366608;22;20006;-61
2022/04/09 05:20:59;;;;;;;1.00;1.00;;;;;;;3.87;99.33;95308.88;6367134;22;20022;-60
2022/04/09 05:23:24;;;;;;;1.48;1.48;;;;;;;3.75;93.52;95300.16;6366645;22;20014;-61
2022/04/09 05:25:50;;;;;;;1.30;1.30;;;;;;;3.53;92.69;95308.66;6367325;22;20073;-61
2022/04/09 05:28:15;;;;;;;1.20;1.20;;;;;;;3.51;92.85;95307.94;6367101;22;20002;-61
2022/04/09 05:30:44;;;;;;;1.10;1.10;;;;;;;3.43;92.94;95314.53;6367238;22;20024;-61
2022/04/09 05:33:10;;;;;;;1.40;1.40;;;;;;;3.42;93.08;95314.63;6367035;22;20042;-60
2022/04/09 05:35:36;;;;;;;1.30;1.30;;;;;;;3.39;94.39;95309.63;6366967;22;20002;-61
2022/04/09 05:38:03;;;;;;;1.88;1.40;;;;;;;3.37;93.78;95314.94;6366969;22;20081;-61
2022/04/09 05:40:29;;;;;;;1.40;1.40;;;;;;;3.29;92.45;95310.25;6366732;22;20074;-61
2022/04/09 05:42:54;;;;;;;1.50;1.50;;;;;;;3.23;91.04;95310.69;6366847;22;20464;-61
2022/04/09 05:45:20;;;;;;;1.40;1.40;;;;;;;3.18;91.72;95315.38;6366822;22;20419;-61
2022/04/09 05:47:47;;;;;;;1.20;1.20;;;;;;;3.15;91.39;95311.22;6366905;22;20002;-61
2022/04/09 05:50:13;;;;;;;1.10;1.10;;;;;;;3.19;89.67;95324.00;6368728;22;20014;-61
2022/04/09 05:52:39;;;;;;;1.30;1.30;;;;;;;3.19;90.54;95327.47;6368990;22;19999;-61
2022/04/09 05:55:06;;;;;;;1.35;1.35;;;;;;;3.26;92.69;95322.66;6340870;22;20013;-61
2022/04/09 05:57:33;;;;;;;1.30;1.30;;;;;;;3.37;94.23;95327.13;6368460;22;20003;-61
2022/04/09 05:59:58;;;;;;;1.58;1.58;;;;;;;3.43;93.86;95324.09;6369183;22;20389;-61
2022/04/09 06:02:24;;;;;;;1.40;1.40;;;;;;;3.56;95.31;95334.47;6368553;22;19999;-61
2022/04/09 06:04:49;;;;;;;1.35;1.15;;;;;;;3.65;94.95;95333.84;6368653;22;20002;-61
2022/04/09 06:07:15;;;;;;;1.60;1.60;;;;;;;3.71;91.17;95341.22;6368723;22;20026;-61
2022/04/09 06:09:41;;;;;;;1.10;1.10;;;;;;;3.67;91.84;95342.38;6368803;22;20037;-61
2022/04/09 06:12:07;;;;;;;1.70;1.60;;;;;;;3.69;91.52;95340.50;6368774;22;19995;-61
2022/04/09 06:14:33;;;;;;;1.38;1.38;;;;;;;3.59;88.30;95349.88;6368483;22;20006;-61
2022/04/09 06:16:58;;;;;;;1.40;1.40;;;;;;;3.62;89.87;95347.06;6368467;22;20446;-61
2022/04/09 06:19:24;;;;;;;1.20;1.20;;;;;;;3.64;89.64;95347.78;6368209;22;20012;-61
2022/04/09 06:21:49;;;;;;;1.58;1.58;;;;;;;3.66;88.04;95345.91;6368663;22;20014;-61
2022/04/09 06:24:15;;;;;;;1.60;1.60;;;;;;;3.70;89.03;95357.78;6368607;22;20017;-61
2022/04/09 06:26:40;;;;;;;1.50;1.50;;;;;;;3.73;88.89;95354.97;6368506;22;20042;-61
2022/04/09 06:29:05;;;;;;;1.60;1.50;;;;;;;3.86;87.15;95357.53;6368628;22;19995;-61
2022/04/09 06:31:31;;;;;;;1.40;1.40;;;;;;;3.86;87.29;95356.66;6368485;22;20002;-61
2022/04/09 06:33:56;;;;;;;1.95;1.85;;;;;;;3.95;89.64;95363.84;6368412;22;20009;-61
2022/04/09 06:36:22;;;;;;;2.38;2.17;;;;;;;4.08;90.15;95370.78;6368412;22;20004;-61
2022/04/09 06:38:47;;;;;;;1.83;1.80;;;;;;;4.22;91.26;95368.03;6368621;22;20013;-61
2022/04/09 06:41:14;;;;;;;1.85;1.80;;;;;;;4.32;89.84;95360.38;6368520;22;20002;-61
2022/04/09 06:43:39;;;;;;;1.48;1.40;;;;;;;4.35;89.16;95362.75;6368301;22;20041;-61
2022/04/09 06:46:05;;;;;;;2.10;2.00;;;;;;;4.22;88.56;95378.44;6368154;22;20006;-61
2022/04/09 06:48:30;;;;;;;2.30;2.20;;;;;;;4.20;88.29;95372.50;6368227;22;20006;-61
2022/04/09 06:50:55;;;;;;;2.47;2.38;;;;;;;4.22;89.16;95373.22;6368138;22;20053;-61
2022/04/09 06:53:21;;;;;;;1.40;1.40;;;;;;;4.20;82.53;95384.69;6368254;22;20049;-61
2022/04/09 06:55:46;;;;;;;1.55;1.48;;;;;;;4.20;86.02;95380.34;6368378;22;20006;-61
2022/04/09 06:58:11;;;;;;;1.52;1.52;;;;;;;4.20;86.05;95382.09;6368241;22;20438;-61
2022/04/09 07:00:37;;;;;;;1.50;1.50;;;;;;;4.27;86.72;95381.53;6367314;22;20029;-61
2022/04/09 07:03:03;;;;;;;1.33;1.33;;;;;;;4.30;85.69;95376.09;6368510;22;20009;-61
2022/04/09 07:05:28;;;;;;;1.42;1.42;;;;;;;4.21;85.35;95376.78;6368474;22;20006;-61
2022/04/09 07:07:54;;;;;;;1.40;1.40;;;;;;;4.25;86.41;95380.00;6368217;22;20002;-61
2022/04/09 07:10:20;;;;;;;1.48;1.38;;;;;;;4.20;84.63;95385.53;6368070;22;20041;-61
2022/04/09 07:12:45;;;;;;;1.30;1.30;;;;;;;4.30;82.83;95380.50;6367627;22;19998;-61
2022/04/09 07:15:11;;;;;;;1.60;1.55;;;;;;;4.20;83.33;95385.53;6366922;22;19995;-61
2022/04/09 07:17:38;;;;;;;1.40;1.40;;;;;;;4.22;84.03;95388.06;6366372;22;20010;-61
2022/04/09 07:20:05;;;;;;;1.83;1.80;;;;;;;4.26;84.92;95386.88;6338359;22;20454;-61
2022/04/09 07:22:32;;;;;;;2.10;2.00;;;;;;;4.34;84.09;95394.97;6367057;22;20446;-62
2022/04/09 07:24:58;;;;;;;1.50;1.50;;;;;;;4.20;82.81;95400.31;6366937;22;20409;-62
2022/04/09 07:27:35;;;;;;;1.15;1.15;;;;;;;4.03;82.04;95397.19;6366902;22;19999;-61
2022/04/09 07:30:02;;;;;;;1.10;1.10;;;;;;;3.76;82.63;95389.53;6366797;22;20006;-61
2022/04/09 07:32:27;;;;;;;1.20;1.20;;;;;;;3.65;82.14;95401.53;6366180;22;20006;-62
2022/04/09 07:34:52;;;;;;;1.70;1.60;;;;;;;3.61;82.45;95401.84;6365947;22;19998;-61
2022/04/09 07:37:19;;;;;;;1.23;1.23;;;;;;;3.44;82.88;95389.06;6365866;22;20009;-61
2022/04/09 07:39:44;;;;;;;1.30;1.30;;;;;;;3.42;83.62;95401.31;6366208;22;20006;-62
2022/04/09 07:42:09;;;;;;;1.35;1.35;;;;;;;3.46;85.13;95398.53;6338409;22;20006;-61
2022/04/09 07:44:35;;;;;;;1.15;1.10;;;;;;;3.44;83.90;95401.22;6366190;22;19994;-61
2022/04/09 07:47:00;;;;;;;1.30;1.30;;;;;;;3.45;83.27;95405.50;6366495;22;20010;-61
2022/04/09 07:49:25;;;;;;;1.45;1.45;;;;;;;3.47;84.66;95408.81;6366263;22;20025;-60
2022/04/09 07:51:51;;;;;;;2.33;2.22;;;;;;;3.75;84.72;95422.53;6366694;22;20037;-62
2022/04/09 07:54:16;;;;;;;1.50;1.50;;;;;;;3.83;81.80;95422.84;6366326;22;20586;-61
2022/04/09 07:56:41;;;;;;;2.30;2.20;;;;;;;3.77;82.34;95425.03;6366615;22;20006;-61
2022/04/09 07:59:07;;;;;;;2.13;2.03;;;;;;;3.69;83.46;95428.19;6367035;22;20013;-61
2022/04/09 08:01:32;;;;;;;1.38;1.38;;;;;;;3.67;83.91;95430.06;6367649;22;20006;-61
2022/04/09 08:03:57;;;;;;;1.67;1.67;;;;;;;3.75;84.38;95430.34;6368192;22;20002;-62
2022/04/09 08:06:23;;;;;;;2.72;2.58;;;;;;;3.80;82.79;95432.63;6367629;22;20037;-63
2022/04/09 08:08:48;;;;;;;2.88;2.67;;;;;;;4.01;83.38;95427.72;6367398;22;20033;-62
2022/04/09 08:11:13;;;;;;;4.03;3.38;;;;;;;4.07;83.30;95434.25;6366728;22;20006;-63
2022/04/09 08:13:39;;;;;;;2.70;2.50;;;;;;;4.15;83.12;95437.97;6366957;22;20144;-63
2022/04/09 08:16:05;;;;;;;1.65;1.58;;;;;;;4.33;83.76;95437.63;6366826;22;19994;-62
2022/04/09 08:18:30;;;;;;;2.20;2.10;;;;;;;4.54;81.86;95439.63;6366244;22;20011;-62
2022/04/09 08:20:56;;;;;;;3.55;2.83;;;;;;;4.69;80.14;95435.06;6366466;22;20009;-61
2022/04/09 08:23:21;;;;;;;2.65;2.45;;;;;;;4.92;79.02;95440.38;6364374;22;20033;-63
2022/04/09 08:25:48;;;;;;;1.90;1.80;;;;;;;4.71;79.92;95447.06;6365847;22;20006;-63
2022/04/09 08:28:13;;;;;;;2.83;2.63;;;;;;;4.73;80.12;95446.94;6367310;22;20367;-62
2022/04/09 08:30:41;;;;;;;3.70;3.30;;;;;;;4.75;78.63;95452.88;6367594;22;20013;-63
2022/04/09 08:33:07;;;;;;;2.83;2.63;;;;;;;4.99;78.75;95459.88;6367668;22;20047;-63
2022/04/09 08:35:33;;;;;;;1.58;1.48;;;;;;;5.79;72.96;95457.41;6365317;22;20042;-61
2022/04/09 08:37:58;;;;;;;2.28;2.17;;;;;;;6.27;73.04;95449.31;6365850;22;20006;-61
2022/04/09 08:40:25;;;;;;;1.70;1.60;;;;;;;6.09;71.69;95442.94;6365102;22;20502;-61
2022/04/09 08:42:51;;;;;;;1.38;1.38;;;;;;;5.82;72.47;95459.75;6337173;22;20009;-61
2022/04/09 08:45:17;;;;;;;2.20;2.10;;;;;;;5.66;72.62;95460.97;6364149;22;20002;-62
2022/04/09 08:47:44;;;;;;;1.83;1.73;;;;;;;5.40;72.68;95458.53;6365183;22;19998;-62
2022/04/09 08:50:11;;;;;;;1.45;1.33;;;;;;;5.17;71.50;95455.03;6337380;22;20125;-62
2022/04/09 08:52:41;;;;;;;1.48;1.38;;;;;;;4.99;72.44;95465.09;6365075;22;20009;-62
2022/04/09 08:55:08;;;;;;;1.73;1.65;;;;;;;4.83;72.38;95465.34;6364534;22;19998;-62
2022/04/09 08:57:35;;;;;;;1.50;1.50;;;;;;;4.61;72.57;95466.09;6365072;22;20003;-61
2022/04/09 09:00:17;;;;;;;1.30;1.30;;;;;;;4.64;73.32;95468.47;6365135;22;20013;-62
2022/04/09 09:02:52;;;;;;;1.15;1.15;;;;;;;4.54;71.98;95470.91;6365246;22;20269;-62
2022/04/09 09:05:32;;;;;;;1.10;1.10;;;;;;;4.62;73.26;95473.78;6365310;22;20006;-61
2022/04/09 09:07:58;;;;;;;1.23;1.23;;;;;;;4.63;71.97;95479.84;6365040;22;20007;-62
2022/04/09 09:10:23;;;;;;;1.10;1.10;;;;;;;4.55;76.17;95480.41;6365138;22;20503;-62
2022/04/09 09:13:03;;;;;;;1.08;1.08;;;;;;;4.48;75.59;95485.22;6364571;22;19998;-62
2022/04/09 09:15:29;;;;;;;1.60;1.60;;;;;;;4.56;75.90;95479.44;6364457;22;20002;-61
2022/04/09 09:17:56;;;;;;;1.60;1.55;;;;;;;4.72;72.84;95477.41;6365169;22;20034;-63
2022/04/09 09:20:22;;;;;;;1.65;1.60;;;;;;;4.72;69.90;95480.03;6364478;22;20013;-62
2022/04/09 09:22:49;;;;;;;1.40;1.40;;;;;;;5.02;72.60;95476.09;6365378;22;20002;-62
2022/04/09 09:25:14;;;;;;;1.30;1.30;;;;;;;5.13;69.27;95467.47;6341095;22;20394;-62
2022/04/09 09:27:40;;;;;;;2.42;2.00;;;;;;;5.41;69.54;95460.19;6369077;22;20034;-62
2022/04/09 09:30:09;;;;;;;2.00;1.90;;;;;;;5.99;67.69;95477.59;6369207;22;20002;-63
2022/04/09 09:32:35;;;;;;;2.25;2.13;;;;;;;6.18;66.15;95477.97;6368816;22;20721;-63
2022/04/09 09:35:01;;;;;;;1.20;1.20;;;;;;;6.07;64.34;95479.66;6369440;22;20007;-62
2022/04/09 09:37:30;;;;;;;1.30;1.30;;;;;;;5.80;64.78;95474.72;6368221;22;20006;-60
2022/04/09 09:39:56;;;;;;;2.17;2.08;;;;;;;5.61;66.22;95475.31;6366361;22;20085;-63
2022/04/09 09:42:23;;;;;;;2.88;2.67;;;;;;;5.31;67.23;95474.91;6366655;22;20029;-60
2022/04/09 09:44:48;;;;;;;1.60;1.60;;;;;;;5.37;66.54;95468.38;6366812;22;20059;-60
2022/04/09 09:47:20;;;;;;;2.20;2.10;;;;;;;5.56;67.43;95476.50;6367785;22;20449;-60
2022/04/09 09:49:53;;;;;;;1.75;1.30;;;;;;;5.40;65.58;95476.00;6367846;22;20542;-61
2022/04/09 09:52:23;;;;;;;2.15;1.98;;;;;;;5.33;65.13;95478.22;6368181;22;20140;-60
2022/04/09 09:55:05;;;;;;;1.42;1.42;;;;;;;5.41;66.42;95472.44;6367940;22;20002;-61
2022/04/09 09:57:32;;;;;;;1.60;1.60;;;;;;;5.59;67.91;95473.66;6367630;22;20353;-61
2022/04/09 10:00:07;;;;;;;1.55;1.55;;;;;;;5.84;65.09;95465.69;6368116;22;20421;-61
2022/04/09 10:02:33;;;;;;;1.40;1.40;;;;;;;6.30;66.75;95469.16;6368102;22;20045;-60
2022/04/09 10:04:58;;;;;;;2.25;2.15;;;;;;;6.50;65.21;95467.56;6368287;22;20454;-60
2022/04/09 10:07:25;;;;;;;1.73;1.63;;;;;;;6.56;64.56;95467.09;6367439;22;20380;-60
2022/04/09 10:09:53;;;;;;;1.45;1.45;;;;;;;6.80;64.63;95467.84;6368147;22;20051;-61
2022/04/09 10:12:20;;;;;;;1.25;1.25;;;;;;;6.59;65.06;95471.25;6366298;22;20002;-61
2022/04/09 10:14:56;;;;;;;1.40;1.40;;;;;;;6.57;64.48;95475.78;6367387;22;19998;-61
2022/04/09 10:17:23;;;;;;;1.35;1.25;;;;;;;6.37;64.34;95472.13;6367527;22;19998;-56
2022/04/09 10:19:56;;;;;;;1.38;1.38;;;;;;;6.54;65.95;95479.47;6367176;22;20057;-54
2022/04/09 10:22:24;;;;;;;1.30;1.30;;;;;;;6.52;64.20;95486.63;6367134;22;20003;-56
2022/04/09 10:24:51;;;;;;;1.30;1.30;;;;;;;6.81;66.44;95487.84;6367367;22;20380;-55
2022/04/09 10:27:40;;;;;;;1.85;1.75;;;;;;;6.60;63.25;95483.38;6367220;22;20081;-54
2022/04/09 10:30:26;;;;;;;2.78;2.58;;;;;;;6.43;64.67;95482.09;6367214;22;20002;-56
2022/04/09 10:32:55;;;;;;;2.58;2.38;;;;;;;6.44;63.93;95484.63;6367229;22;20030;-57
2022/04/09 10:35:45;;;;;;;5.60;4.32;;;;;;;6.33;63.87;95484.63;6367178;22;20034;-56
2022/04/09 10:38:10;;;;;;;1.90;1.80;;;;;;;6.09;64.71;95485.59;6366550;22;19999;-58
2022/04/09 10:40:56;;;;;;;12.18;8.52;;;;;;;5.78;63.93;95482.69;6368872;22;20002;-58
2022/04/09 10:43:22;;;;;;;4.38;3.97;;;;;;;5.67;66.64;95500.97;6368670;22;20002;-59
2022/04/09 10:46:03;;;;;;;2.55;2.35;;;;;;;5.61;65.09;95502.25;6368950;22;20487;-61
2022/04/09 10:48:36;;;;;;;2.95;2.75;;;;;;;5.62;68.68;95508.31;6368860;22;20077;-60
2022/04/09 10:51:11;;;;;;;1.40;1.40;;;;;;;5.87;67.73;95518.56;6368113;22;20505;-60
2022/04/09 10:53:48;;;;;;;1.60;1.50;;;;;;;5.40;67.12;95510.75;6367622;22;20036;-60
2022/04/09 10:56:21;;;;;;;8.60;6.20;;;;;;;5.39;67.23;95511.69;6368696;22;20073;-60
2022/04/09 10:59:06;;;;;;;4.28;3.75;;;;;;;5.42;67.39;95521.94;6366085;22;20059;-62
2022/04/09 11:01:47;;;;;;;3.90;3.60;;;;;;;5.54;69.11;95512.34;6366159;22;19998;-61
2022/04/09 11:04:27;;;;;;;1.90;1.80;;;;;;;5.35;66.05;95512.88;6367001;22;19999;-60
2022/04/09 11:07:20;;;;;;;1.10;1.10;;;;;;;5.25;66.71;95522.34;6367488;22;20067;-60
2022/04/09 11:10:01;;;;;;;1.45;1.42;;;;;;;5.55;66.24;95507.94;6366855;22;20013;-60
2022/04/09 11:12:28;;;;;;;1.48;1.48;;;;;;;6.31;63.32;95504.81;6367233;22;20006;-61
2022/04/09 11:15:05;;;;;;;1.88;1.77;;;;;;;6.50;65.04;95498.97;6366613;22;20002;-60
2022/04/09 11:17:33;;;;;;;1.50;1.50;;;;;;;6.38;63.29;95505.19;6366599;22;20009;-59
2022/04/09 11:20:07;;;;;;;1.50;1.35;;;;;;;6.38;63.70;95495.53;6366831;22;20006;-60
2022/04/09 11:22:40;;;;;;;1.57;1.57;;;;;;;6.18;63.14;95512.78;6366742;22;20503;-60
2022/04/09 11:25:18;;;;;;;2.60;2.40;;;;;;;6.07;66.15;95512.78;6366276;22;19998;-60
2022/04/09 11:27:44;;;;;;;1.50;1.50;;;;;;;5.70;67.86;95522.47;6366807;22;20010;-60
2022/04/09 11:30:09;;;;;;;1.60;1.60;;;;;;;5.40;68.34;95536.03;6366306;22;20010;-60
2022/04/09 11:32:38;;;;;;;1.90;1.80;;;;;;;5.15;67.89;95533.44;6366413;22;20446;-60
2022/04/09 11:35:10;;;;;;;1.52;1.52;;;;;;;5.40;67.75;95531.63;6366463;22;20019;-60
2022/04/09 11:37:39;;;;;;;1.20;1.20;;;;;;;6.45;68.96;95532.50;6366547;22;20450;-60
2022/04/09 11:40:07;;;;;;;2.25;2.10;;;;;;;6.88;65.54;95529.09;6366452;22;20005;-60
2022/04/09 11:42:52;;;;;;;1.98;1.88;;;;;;;7.25;64.57;95529.69;6366058;22;19998;-60